createdAt,value
2023-01-06T00:00:38.794Z,100943.41
2023-01-06T00:01:41.441Z,100950.28
2023-01-06T00:02:43.195Z,100952.84
2023-01-06T00:03:49.898Z,100952.34
2023-01-06T00:04:52.861Z,100947.56
2023-01-06T00:05:58.916Z,100934.06
2023-01-06T00:07:00.483Z,100944.50
2023-01-06T00:08:03.198Z,100947.47
2023-01-06T00:09:06.192Z,100940.25
2023-01-06T00:10:09.427Z,100942.63
2023-01-06T00:11:13.880Z,100937.72
2023-01-06T00:12:16.415Z,100936.44
2023-01-06T00:13:17.965Z,100934.69
2023-01-06T00:14:20.410Z,100946.00
2023-01-06T00:15:21.979Z,100937.16
2023-01-06T00:16:25.023Z,100929.34
2023-01-06T00:17:26.548Z,100935.59
2023-01-06T00:18:29.057Z,100930.22
2023-01-06T00:19:30.547Z,100932.47
2023-01-06T00:20:34.608Z,100942.38
2023-01-06T00:21:36.127Z,100938.22
2023-01-06T00:22:42.768Z,100941.00
2023-01-06T00:23:45.290Z,100940.25
2023-01-06T00:24:46.797Z,100934.28
2023-01-06T00:25:52.589Z,100935.84
2023-01-06T00:26:54.178Z,100940.66
2023-01-06T00:27:57.317Z,100939.59
2023-01-06T00:28:59.765Z,100937.53
2023-01-06T00:30:01.500Z,100937.84
2023-01-06T00:31:08.151Z,100944.41
2023-01-06T00:32:09.776Z,100929.72
2023-01-06T00:33:12.377Z,100938.22
2023-01-06T00:34:13.977Z,100939.59
2023-01-06T00:35:16.737Z,100945.66
2023-01-06T00:36:21.673Z,100940.66
2023-01-06T00:37:24.151Z,100936.06
2023-01-06T00:38:25.699Z,100942.56
2023-01-06T00:39:28.125Z,100925.59
2023-01-06T00:40:29.627Z,100927.97
2023-01-06T00:41:50.034Z,100931.53
2023-01-06T00:42:52.488Z,100927.59
2023-01-06T00:43:54.139Z,100924.72
2023-01-06T00:44:56.625Z,100925.03
2023-01-06T00:45:58.189Z,100918.97
2023-01-06T00:47:01.034Z,100918.66
2023-01-06T00:48:03.474Z,100918.59
2023-01-06T00:49:07.142Z,100918.06
2023-01-06T00:50:10.607Z,100921.03
2023-01-06T00:51:12.109Z,100921.31
2023-01-06T00:52:16.230Z,100922.31
2023-01-06T00:53:17.771Z,100920.66
2023-01-06T00:54:20.982Z,100917.56
2023-01-06T00:55:22.626Z,100904.06
2023-01-06T00:56:25.080Z,100910.03
2023-01-06T00:57:27.210Z,100914.91
2023-01-06T00:58:31.206Z,100913.72
2023-01-06T00:59:32.738Z,100918.06
2023-01-06T01:00:35.241Z,100904.28
2023-01-06T01:01:37.203Z,100900.50
2023-01-06T01:02:39.931Z,100907.44
2023-01-06T01:03:41.941Z,100914.09
2023-01-06T01:04:44.458Z,100905.00
2023-01-06T01:05:45.947Z,100894.00
2023-01-06T01:06:49.359Z,100896.81
2023-01-06T01:07:53.097Z,100910.28
2023-01-06T01:08:55.970Z,100905.41
2023-01-06T01:09:58.415Z,100904.56
2023-01-06T01:11:04.088Z,100909.22
2023-01-06T01:12:13.072Z,100904.41
2023-01-06T01:13:14.548Z,100906.09
2023-01-06T01:14:19.007Z,100895.72
2023-01-06T01:15:22.437Z,100905.34
2023-01-06T01:16:23.961Z,100894.19
2023-01-06T01:17:28.739Z,100894.72
2023-01-06T01:18:30.477Z,100896.34
2023-01-06T01:19:33.151Z,100890.66
2023-01-06T01:20:35.913Z,100894.56
2023-01-06T01:21:37.997Z,100892.09
2023-01-06T01:22:40.458Z,100896.47
2023-01-06T01:23:43.265Z,100887.50
2023-01-06T01:24:45.876Z,100892.38
2023-01-06T01:25:47.415Z,100885.94
2023-01-06T01:26:50.302Z,100884.06
2023-01-06T01:27:52.989Z,100895.19
2023-01-06T01:28:54.475Z,100889.75
2023-01-06T01:29:56.946Z,100897.84
2023-01-06T01:30:59.418Z,100888.72
2023-01-06T01:32:02.046Z,100890.72
2023-01-06T01:33:03.596Z,100879.66
2023-01-06T01:34:06.089Z,100877.22
2023-01-06T01:35:09.114Z,100875.13
2023-01-06T01:36:13.598Z,100887.25
2023-01-06T01:37:16.168Z,100879.94
2023-01-06T01:38:17.781Z,100876.16
2023-01-06T01:39:24.692Z,100881.81
2023-01-06T01:40:26.385Z,100878.78
2023-01-06T01:41:30.011Z,100882.97
2023-01-06T01:42:32.514Z,100887.22
2023-01-06T01:43:44.258Z,100876.72
2023-01-06T01:45:01.880Z,100877.78
2023-01-06T01:46:03.462Z,100880.00
2023-01-06T01:47:06.159Z,100878.84
2023-01-06T01:48:16.812Z,100885.97
2023-01-06T01:49:23.541Z,100877.84
2023-01-06T01:50:32.269Z,100883.66
2023-01-06T01:51:39.398Z,100884.78
2023-01-06T01:52:43.866Z,100888.09
2023-01-06T01:53:48.469Z,100881.03
2023-01-06T01:54:54.251Z,100883.50
2023-01-06T01:55:58.747Z,100883.22
2023-01-06T01:57:05.005Z,100884.38
2023-01-06T01:58:10.982Z,100881.34
2023-01-06T01:59:16.237Z,100876.69
2023-01-06T02:00:19.950Z,100889.50
2023-01-06T02:01:21.543Z,100887.09
2023-01-06T02:02:25.057Z,100883.00
2023-01-06T02:03:28.498Z,100882.97
2023-01-06T02:04:34.479Z,100885.16
2023-01-06T02:05:40.466Z,100887.13
2023-01-06T02:06:42.302Z,100884.91
2023-01-06T02:07:45.043Z,100886.28
2023-01-06T02:08:54.613Z,100890.09
2023-01-06T02:10:06.776Z,100886.28
2023-01-06T02:11:10.536Z,100896.09
2023-01-06T02:12:12.338Z,100886.28
2023-01-06T02:13:14.878Z,100879.19
2023-01-06T02:14:19.525Z,100866.91
2023-01-06T02:15:25.561Z,100875.91
2023-01-06T02:16:34.947Z,100877.03
2023-01-06T02:17:51.390Z,100876.19
2023-01-06T02:18:59.648Z,100874.53
2023-01-06T02:20:30.857Z,100879.16
2023-01-06T02:21:42.786Z,100882.13
2023-01-06T02:23:04.130Z,100879.66
2023-01-06T02:24:45.120Z,100877.50
2023-01-06T02:26:44.619Z,100870.88
2023-01-06T02:28:20.914Z,100872.28
2023-01-06T02:29:52.687Z,100870.75
2023-01-06T02:31:27.807Z,100869.09
2023-01-06T02:32:40.833Z,100864.00
2023-01-06T02:33:49.841Z,100865.16
2023-01-06T02:35:01.777Z,100862.16
2023-01-06T02:36:18.004Z,100860.03
2023-01-06T02:37:33.488Z,100843.19
2023-01-06T02:38:48.410Z,100853.09
2023-01-06T02:40:04.870Z,100851.97
2023-01-06T02:41:23.059Z,100856.78
2023-01-06T02:42:35.351Z,100859.13
2023-01-06T02:43:47.391Z,100850.53
2023-01-06T02:45:04.028Z,100847.25
2023-01-06T02:46:15.536Z,100846.44
2023-01-06T02:47:22.573Z,100844.28
2023-01-06T02:48:33.304Z,100830.19
2023-01-06T02:49:45.934Z,100840.81
2023-01-06T02:50:56.585Z,100841.16
2023-01-06T02:52:03.525Z,100838.91
2023-01-06T02:53:10.726Z,100833.53
2023-01-06T02:54:21.276Z,100831.59
2023-01-06T02:55:29.404Z,100828.34
2023-01-06T02:56:38.094Z,100824.34
2023-01-06T02:57:45.527Z,100834.94
2023-01-06T02:58:54.086Z,100823.81
2023-01-06T03:00:01.448Z,100823.28
2023-01-06T03:01:08.389Z,100826.56
2023-01-06T03:02:11.295Z,100825.75
2023-01-06T03:03:17.852Z,100819.78
2023-01-06T03:04:24.787Z,100820.97
2023-01-06T03:05:29.113Z,100814.34
2023-01-06T03:06:34.028Z,100813.47
2023-01-06T03:07:38.473Z,100815.44
2023-01-06T03:08:41.101Z,100816.44
2023-01-06T03:09:44.733Z,100818.50
2023-01-06T03:10:47.539Z,100802.63
2023-01-06T03:11:52.106Z,100808.41
2023-01-06T03:12:59.792Z,100813.53
2023-01-06T03:14:07.506Z,100802.72
2023-01-06T03:15:10.267Z,100803.63
2023-01-06T03:16:13.319Z,100791.63
2023-01-06T03:17:14.961Z,100810.47
2023-01-06T03:18:18.044Z,100806.44
2023-01-06T03:19:21.327Z,100804.25
2023-01-06T03:20:24.106Z,100802.25
2023-01-06T03:21:30.592Z,100799.28
2023-01-06T03:22:38.786Z,100805.28
2023-01-06T03:23:42.495Z,100809.41
2023-01-06T03:24:45.328Z,100810.25
2023-01-06T03:25:47.823Z,100792.88
2023-01-06T03:26:52.320Z,100790.19
2023-01-06T03:27:54.839Z,100798.75
2023-01-06T03:28:56.505Z,100792.53
2023-01-06T03:29:59.403Z,100796.72
2023-01-06T03:31:09.507Z,100794.94
2023-01-06T03:32:20.091Z,100793.88
2023-01-06T03:33:28.288Z,100785.44
2023-01-06T03:34:45.239Z,100790.88
2023-01-06T03:36:00.341Z,100784.00
2023-01-06T03:37:10.748Z,100790.00
2023-01-06T03:38:21.960Z,100793.63
2023-01-06T03:39:32.125Z,100790.34
2023-01-06T03:40:40.638Z,100788.72
2023-01-06T03:42:05.748Z,100790.84
2023-01-06T03:43:12.304Z,100776.59
2023-01-06T03:44:20.904Z,100784.09
2023-01-06T03:45:40.160Z,100787.16
2023-01-06T03:46:51.977Z,100779.31
2023-01-06T03:47:59.812Z,100776.88
2023-01-06T03:49:08.265Z,100781.25
2023-01-06T03:50:17.315Z,100787.28
2023-01-06T03:51:31.600Z,100777.63
2023-01-06T03:52:39.501Z,100776.81
2023-01-06T03:53:47.825Z,100784.59
2023-01-06T03:54:57.691Z,100777.56
2023-01-06T03:56:10.384Z,100775.94
2023-01-06T03:57:15.302Z,100775.56
2023-01-06T03:58:20.518Z,100774.59
2023-01-06T03:59:26.442Z,100785.72
2023-01-06T04:00:32.708Z,100769.69
2023-01-06T04:01:34.467Z,100776.00
2023-01-06T04:02:38.726Z,100780.19
2023-01-06T04:03:44.791Z,100763.81
2023-01-06T04:05:01.490Z,100773.13
2023-01-06T04:06:05.726Z,100766.59
2023-01-06T04:07:07.333Z,100776.94
2023-01-06T04:08:09.877Z,100769.34
2023-01-06T04:09:11.680Z,100775.34
2023-01-06T04:10:15.914Z,100772.75
2023-01-06T04:11:37.759Z,100767.59
2023-01-06T04:12:39.597Z,100771.78
2023-01-06T04:13:42.235Z,100767.22
2023-01-06T04:14:43.727Z,100754.19
2023-01-06T04:15:46.169Z,100767.84
2023-01-06T04:16:47.673Z,100762.38
2023-01-06T04:17:50.770Z,100764.53
2023-01-06T04:18:52.420Z,100754.72
2023-01-06T04:19:54.930Z,100756.38
2023-01-06T04:20:56.399Z,100761.56
2023-01-06T04:22:00.196Z,100762.66
2023-01-06T04:23:01.746Z,100759.34
2023-01-06T04:24:04.468Z,100760.16
2023-01-06T04:25:07.173Z,100753.84
2023-01-06T04:26:09.648Z,100751.47
2023-01-06T04:27:11.156Z,100752.56
2023-01-06T04:28:13.564Z,100747.59
2023-01-06T04:29:15.101Z,100751.91
2023-01-06T04:30:18.006Z,100740.00
2023-01-06T04:31:19.618Z,100754.75
2023-01-06T04:32:22.183Z,100747.28
2023-01-06T04:33:23.878Z,100757.94
2023-01-06T04:34:26.315Z,100749.72
2023-01-06T04:35:28.749Z,100757.91
2023-01-06T04:36:31.315Z,100749.00
2023-01-06T04:37:34.420Z,100752.19
2023-01-06T04:38:36.949Z,100743.19
2023-01-06T04:39:38.459Z,100750.06
2023-01-06T04:40:42.379Z,100746.28
2023-01-06T04:41:44.005Z,100742.72
2023-01-06T04:43:04.498Z,100739.47
2023-01-06T04:44:07.144Z,100741.66
2023-01-06T04:45:09.192Z,100734.75
2023-01-06T04:46:11.733Z,100740.56
2023-01-06T04:47:13.243Z,100727.47
2023-01-06T04:48:15.707Z,100739.47
2023-01-06T04:49:17.216Z,100731.31
2023-01-06T04:50:19.768Z,100719.84
2023-01-06T04:51:21.301Z,100727.50
2023-01-06T04:52:23.757Z,100721.22
2023-01-06T04:53:26.595Z,100724.75
2023-01-06T04:54:29.102Z,100719.03
2023-01-06T04:55:31.704Z,100717.66
2023-01-06T04:56:33.203Z,100717.69
2023-01-06T04:57:35.655Z,100714.41
2023-01-06T04:58:37.821Z,100711.66
2023-01-06T04:59:40.288Z,100713.03
2023-01-06T05:00:41.816Z,100712.75
2023-01-06T05:01:44.405Z,100717.13
2023-01-06T05:02:46.300Z,100710.59
2023-01-06T05:03:48.955Z,100714.94
2023-01-06T05:04:50.456Z,100714.41
2023-01-06T05:05:52.867Z,100706.50
2023-01-06T05:06:54.385Z,100709.78
2023-01-06T05:07:56.969Z,100708.13
2023-01-06T05:08:59.826Z,100709.50
2023-01-06T05:10:02.333Z,100702.41
2023-01-06T05:11:06.049Z,100715.19
2023-01-06T05:12:08.998Z,100703.94
2023-01-06T05:13:10.551Z,100704.44
2023-01-06T05:14:13.154Z,100699.50
2023-01-06T05:15:14.893Z,100710.41
2023-01-06T05:16:21.784Z,100698.47
2023-01-06T05:17:24.362Z,100697.94
2023-01-06T05:18:25.888Z,100697.34
2023-01-06T05:19:28.397Z,100691.94
2023-01-06T05:20:29.945Z,100693.28
2023-01-06T05:21:33.119Z,100693.84
2023-01-06T05:22:34.672Z,100698.03
2023-01-06T05:23:37.288Z,100689.56
2023-01-06T05:24:41.058Z,100688.50
2023-01-06T05:25:42.644Z,100698.03
2023-01-06T05:26:45.073Z,100690.16
2023-01-06T05:27:46.582Z,100690.69
2023-01-06T05:28:49.627Z,100686.06
2023-01-06T05:29:51.136Z,100691.25
2023-01-06T05:30:53.974Z,100701.31
2023-01-06T05:31:55.620Z,100697.50
2023-01-06T05:32:58.025Z,100694.50
2023-01-06T05:34:00.465Z,100695.31
2023-01-06T05:35:01.985Z,100699.13
2023-01-06T05:36:06.784Z,100695.88
2023-01-06T05:37:08.309Z,100690.94
2023-01-06T05:38:10.770Z,100695.03
2023-01-06T05:39:12.309Z,100706.50
2023-01-06T05:40:16.232Z,100701.00
2023-01-06T05:41:17.730Z,100695.56
2023-01-06T05:42:20.203Z,100703.47
2023-01-06T05:43:21.714Z,100698.25
2023-01-06T05:44:24.256Z,100700.19
2023-01-06T05:45:26.113Z,100700.50
2023-01-06T05:46:28.676Z,100701.81
2023-01-06T05:47:30.210Z,100707.81
2023-01-06T05:48:32.651Z,100708.09
2023-01-06T05:49:35.159Z,100702.38
2023-01-06T05:50:36.681Z,100702.38
2023-01-06T05:51:39.188Z,100698.53
2023-01-06T05:52:40.855Z,100699.13
2023-01-06T05:53:45.198Z,100696.41
2023-01-06T05:54:46.892Z,100686.59
2023-01-06T05:55:50.651Z,100701.28
2023-01-06T05:56:52.155Z,100700.47
2023-01-06T05:57:54.667Z,100702.94
2023-01-06T05:58:56.324Z,100696.94
2023-01-06T05:59:58.956Z,100697.75
2023-01-06T06:01:00.849Z,100702.38
2023-01-06T06:02:03.338Z,100693.88
2023-01-06T06:03:04.994Z,100691.69
2023-01-06T06:04:07.534Z,100694.16
2023-01-06T06:05:09.375Z,100690.13
2023-01-06T06:06:12.406Z,100693.66
2023-01-06T06:07:13.968Z,100691.19
2023-01-06T06:08:16.464Z,100682.41
2023-01-06T06:09:18.920Z,100680.78
2023-01-06T06:10:20.463Z,100668.53
2023-01-06T06:11:24.224Z,100682.13
2023-01-06T06:12:25.765Z,100685.94
2023-01-06T06:13:28.204Z,100682.13
2023-01-06T06:14:30.692Z,100685.38
2023-01-06T06:15:33.122Z,100688.91
2023-01-06T06:16:35.154Z,100685.06
2023-01-06T06:17:37.737Z,100686.50
2023-01-06T06:18:42.859Z,100690.06
2023-01-06T06:19:45.350Z,100691.22
2023-01-06T06:20:46.842Z,100689.31
2023-01-06T06:21:49.325Z,100689.59
2023-01-06T06:22:50.817Z,100685.22
2023-01-06T06:23:53.783Z,100690.13
2023-01-06T06:24:56.274Z,100694.22
2023-01-06T06:25:57.959Z,100692.31
2023-01-06T06:27:01.885Z,100681.94
2023-01-06T06:28:03.385Z,100686.31
2023-01-06T06:29:06.885Z,100679.50
2023-01-06T06:30:09.092Z,100673.78
2023-01-06T06:31:13.894Z,100672.13
2023-01-06T06:32:15.440Z,100669.41
2023-01-06T06:33:17.916Z,100669.94
2023-01-06T06:34:19.532Z,100675.41
2023-01-06T06:35:21.998Z,100669.97
2023-01-06T06:36:25.022Z,100663.97
2023-01-06T06:37:26.542Z,100674.59
2023-01-06T06:38:29.409Z,100676.75
2023-01-06T06:39:30.939Z,100680.84
2023-01-06T06:40:33.394Z,100663.94
2023-01-06T06:41:35.878Z,100666.41
2023-01-06T06:42:38.719Z,100680.06
2023-01-06T06:43:41.494Z,100664.25
2023-01-06T06:44:43.008Z,100680.06
2023-01-06T06:45:45.567Z,100676.75
2023-01-06T06:46:50.082Z,100664.78
2023-01-06T06:47:53.640Z,100668.84
2023-01-06T06:48:56.181Z,100673.78
2023-01-06T06:49:57.726Z,100674.59
2023-01-06T06:51:01.788Z,100668.88
2023-01-06T06:52:04.450Z,100673.78
2023-01-06T06:53:06.302Z,100674.06
2023-01-06T06:54:08.761Z,100671.88
2023-01-06T06:55:11.215Z,100665.88
2023-01-06T06:56:14.091Z,100669.69
2023-01-06T06:57:16.569Z,100660.94
2023-01-06T06:58:19.418Z,100657.69
2023-01-06T06:59:21.844Z,100668.88
2023-01-06T07:00:23.604Z,100664.19
2023-01-06T07:01:26.224Z,100664.22
2023-01-06T07:02:27.905Z,100662.00
2023-01-06T07:03:30.417Z,100659.28
2023-01-06T07:04:32.982Z,100662.81
2023-01-06T07:05:34.894Z,100668.53
2023-01-06T07:06:37.404Z,100668.25
2023-01-06T07:07:38.957Z,100666.09
2023-01-06T07:08:44.471Z,100668.59
2023-01-06T07:09:46.051Z,100658.25
2023-01-06T07:10:48.575Z,100662.81
2023-01-06T07:11:50.118Z,100665.59
2023-01-06T07:12:52.596Z,100650.06
2023-01-06T07:13:55.827Z,100667.50
2023-01-06T07:14:58.315Z,100657.69
2023-01-06T07:15:59.918Z,100662.31
2023-01-06T07:17:02.898Z,100662.84
2023-01-06T07:18:05.815Z,100656.28
2023-01-06T07:19:09.636Z,100663.13
2023-01-06T07:20:11.716Z,100656.59
2023-01-06T07:21:14.191Z,100659.59
2023-01-06T07:22:16.666Z,100656.06
2023-01-06T07:23:18.292Z,100658.22
2023-01-06T07:24:20.737Z,100651.69
2023-01-06T07:25:23.449Z,100657.13
2023-01-06T07:26:25.909Z,100654.41
2023-01-06T07:27:27.432Z,100662.88
2023-01-06T07:28:32.018Z,100664.50
2023-01-06T07:29:34.855Z,100672.97
2023-01-06T07:30:38.649Z,100672.94
2023-01-06T07:31:40.166Z,100666.13
2023-01-06T07:32:42.717Z,100668.56
2023-01-06T07:33:45.254Z,100661.22
2023-01-06T07:34:46.760Z,100671.59
2023-01-06T07:35:53.447Z,100669.97
2023-01-06T07:36:55.078Z,100671.31
2023-01-06T07:38:03.396Z,100672.66
2023-01-06T07:39:05.038Z,100679.69
2023-01-06T07:40:08.480Z,100665.78
2023-01-06T07:41:11.207Z,100677.78
2023-01-06T07:42:12.862Z,100673.41
2023-01-06T07:43:15.372Z,100666.00
2023-01-06T07:44:18.120Z,100675.00
2023-01-06T07:45:21.064Z,100676.38
2023-01-06T07:46:25.149Z,100678.28
2023-01-06T07:47:26.780Z,100663.00
2023-01-06T07:48:29.269Z,100671.44
2023-01-06T07:49:30.809Z,100665.91
2023-01-06T07:50:33.801Z,100655.59
2023-01-06T07:51:35.299Z,100675.47
2023-01-06T07:52:37.844Z,100677.41
2023-01-06T07:53:39.357Z,100676.41
2023-01-06T07:54:41.857Z,100671.22
2023-01-06T07:55:51.151Z,100676.66
2023-01-06T07:56:52.727Z,100669.88
2023-01-06T07:57:55.589Z,100677.50
2023-01-06T07:58:57.148Z,100679.72
2023-01-06T07:59:59.589Z,100680.22
2023-01-06T08:01:06.672Z,100677.28
2023-01-06T08:02:11.507Z,100674.03
2023-01-06T08:03:13.193Z,100683.31
2023-01-06T08:04:15.817Z,100683.31
2023-01-06T08:05:17.410Z,100687.09
2023-01-06T08:06:19.885Z,100676.72
2023-01-06T08:07:22.351Z,100689.59
2023-01-06T08:08:24.869Z,100683.06
2023-01-06T08:09:26.501Z,100682.50
2023-01-06T08:10:28.927Z,100686.25
2023-01-06T08:11:30.444Z,100680.53
2023-01-06T08:12:32.984Z,100682.16
2023-01-06T08:13:34.707Z,100678.34
2023-01-06T08:14:37.187Z,100693.13
2023-01-06T08:15:39.426Z,100685.78
2023-01-06T08:16:43.419Z,100687.13
2023-01-06T08:17:44.998Z,100684.69
2023-01-06T08:18:47.961Z,100677.03
2023-01-06T08:19:49.733Z,100694.22
2023-01-06T08:20:52.390Z,100680.59
2023-01-06T08:21:53.877Z,100676.22
2023-01-06T08:22:56.457Z,100669.97
2023-01-06T08:23:58.935Z,100654.94
2023-01-06T08:25:00.637Z,100669.16
2023-01-06T08:26:04.957Z,100672.97
2023-01-06T08:27:06.462Z,100666.13
2023-01-06T08:28:08.948Z,100668.88
2023-01-06T08:29:11.560Z,100674.31
2023-01-06T08:30:13.551Z,100668.03
2023-01-06T08:31:18.691Z,100666.69
2023-01-06T08:32:21.800Z,100681.41
2023-01-06T08:33:25.887Z,100669.13
2023-01-06T08:34:28.500Z,100679.78
2023-01-06T08:35:30.996Z,100676.19
2023-01-06T08:36:33.503Z,100669.66
2023-01-06T08:37:35.844Z,100669.66
2023-01-06T08:38:38.536Z,100672.91
2023-01-06T08:39:40.117Z,100666.59
2023-01-06T08:40:42.601Z,100665.81
2023-01-06T08:41:44.213Z,100668.56
2023-01-06T08:42:46.965Z,100679.41
2023-01-06T08:43:49.982Z,100678.34
2023-01-06T08:44:52.509Z,100674.22
2023-01-06T08:45:58.783Z,100667.97
2023-01-06T08:47:01.291Z,100685.69
2023-01-06T08:48:04.484Z,100684.28
2023-01-06T08:49:07.143Z,100688.16
2023-01-06T08:50:10.194Z,100680.50
2023-01-06T08:51:14.343Z,100680.00
2023-01-06T08:52:16.911Z,100682.75
2023-01-06T08:53:19.422Z,100678.09
2023-01-06T08:54:21.352Z,100668.03
2023-01-06T08:55:23.914Z,100674.56
2023-01-06T08:56:28.062Z,100684.38
2023-01-06T08:57:30.554Z,100686.22
2023-01-06T08:58:33.011Z,100681.63
2023-01-06T08:59:35.599Z,100676.75
2023-01-06T09:00:41.536Z,100681.41
2023-01-06T09:01:45.235Z,100684.34
2023-01-06T09:02:48.010Z,100684.34
2023-01-06T09:03:51.712Z,100699.63
2023-01-06T09:04:56.222Z,100688.13
2023-01-06T09:05:58.506Z,100686.78
2023-01-06T09:07:01.031Z,100691.44
2023-01-06T09:08:02.854Z,100693.13
2023-01-06T09:09:06.282Z,100690.88
2023-01-06T09:10:08.671Z,100684.00
2023-01-06T09:11:12.467Z,100690.25
2023-01-06T09:12:14.934Z,100674.47
2023-01-06T09:13:17.558Z,100669.09
2023-01-06T09:14:20.388Z,100683.81
2023-01-06T09:15:21.985Z,100683.81
2023-01-06T09:16:24.612Z,100670.97
2023-01-06T09:17:26.250Z,100678.59
2023-01-06T09:18:28.988Z,100659.78
2023-01-06T09:19:32.829Z,100671.78
2023-01-06T09:20:34.528Z,100669.94
2023-01-06T09:21:37.573Z,100669.63
2023-01-06T09:22:40.136Z,100671.81
2023-01-06T09:23:41.730Z,100670.16
2023-01-06T09:24:44.281Z,100667.13
2023-01-06T09:25:45.779Z,100675.63
2023-01-06T09:26:49.650Z,100663.41
2023-01-06T09:27:51.353Z,100653.31
2023-01-06T09:28:53.945Z,100681.66
2023-01-06T09:29:55.441Z,100679.47
2023-01-06T09:30:57.873Z,100675.91
2023-01-06T09:32:00.345Z,100686.81
2023-01-06T09:33:01.899Z,100679.19
2023-01-06T09:34:04.492Z,100694.97
2023-01-06T09:35:10.016Z,100694.66
2023-01-06T09:36:27.416Z,100703.47
2023-01-06T09:37:28.945Z,100670.50
2023-01-06T09:38:31.479Z,100696.94
2023-01-06T09:39:33.071Z,100668.88
2023-01-06T09:40:46.009Z,100676.75
2023-01-06T09:42:06.091Z,100692.03
2023-01-06T09:43:20.623Z,100697.25
2023-01-06T09:44:29.688Z,100696.94
2023-01-06T09:45:39.215Z,100707.31
2023-01-06T09:46:44.056Z,100701.84
2023-01-06T09:47:52.340Z,100702.94
2023-01-06T09:49:03.119Z,100699.41
2023-01-06T09:50:10.791Z,100701.28
2023-01-06T09:51:20.002Z,100699.94
2023-01-06T09:52:29.775Z,100704.00
2023-01-06T09:53:35.601Z,100710.25
2023-01-06T09:54:45.007Z,100705.91
2023-01-06T09:55:50.364Z,100696.91
2023-01-06T09:56:56.703Z,100690.34
2023-01-06T09:58:01.762Z,100695.81
2023-01-06T09:59:09.228Z,100704.25
2023-01-06T10:00:20.997Z,100698.22
2023-01-06T10:01:31.616Z,100709.41
2023-01-06T10:02:37.813Z,100699.06
2023-01-06T10:03:40.567Z,100700.41
2023-01-06T10:04:42.392Z,100704.78
2023-01-06T10:05:58.230Z,100698.50
2023-01-06T10:07:14.302Z,100696.81
2023-01-06T10:08:25.800Z,100697.84
2023-01-06T10:09:33.174Z,100712.50
2023-01-06T10:10:45.131Z,100688.81
2023-01-06T10:11:57.383Z,100706.88
2023-01-06T10:13:12.010Z,100714.53
2023-01-06T10:14:21.550Z,100696.13
2023-01-06T10:15:34.454Z,100705.31
2023-01-06T10:16:53.140Z,100702.31
2023-01-06T10:18:26.606Z,100705.44
2023-01-06T10:19:36.611Z,100706.22
2023-01-06T10:20:51.117Z,100695.00
2023-01-06T10:22:04.402Z,100701.19
2023-01-06T10:23:12.525Z,100700.69
2023-01-06T10:24:29.458Z,100707.78
2023-01-06T10:25:35.247Z,100705.72
2023-01-06T10:26:43.697Z,100705.34
2023-01-06T10:27:54.461Z,100699.88
2023-01-06T10:29:00.129Z,100709.66
2023-01-06T10:30:07.132Z,100708.19
2023-01-06T10:31:13.413Z,100692.47
2023-01-06T10:32:17.091Z,100700.53
2023-01-06T10:34:35.756Z,100698.66
2023-01-06T10:35:38.388Z,100706.59
2023-01-06T10:36:46.198Z,100697.44
2023-01-06T10:37:50.359Z,100705.50
2023-01-06T10:38:54.374Z,100694.16
2023-01-06T10:40:01.544Z,100702.00
2023-01-06T10:41:14.684Z,100694.25
2023-01-06T10:42:43.475Z,100687.69
2023-01-06T10:43:45.924Z,100695.91
2023-01-06T10:44:48.472Z,100696.00
2023-01-06T10:45:51.516Z,100686.28
2023-01-06T10:46:53.089Z,100701.75
2023-01-06T10:47:56.232Z,100682.81
2023-01-06T10:48:58.693Z,100695.41
2023-01-06T10:50:00.746Z,100698.84
2023-01-06T10:51:21.530Z,100696.88
2023-01-06T10:52:26.335Z,100696.81
2023-01-06T10:53:28.785Z,100701.78
2023-01-06T10:54:33.767Z,100685.41
2023-01-06T10:55:40.618Z,100688.75
2023-01-06T10:56:48.049Z,100683.72
2023-01-06T10:57:52.067Z,100681.19
2023-01-06T10:58:58.613Z,100681.41
2023-01-06T11:00:14.044Z,100676.66
2023-01-06T11:01:18.576Z,100681.63
2023-01-06T11:02:22.439Z,100663.78
2023-01-06T11:03:33.285Z,100666.38
2023-01-06T11:04:41.712Z,100669.56
2023-01-06T11:05:43.352Z,100678.88
2023-01-06T11:06:49.686Z,100663.81
2023-01-06T11:07:59.472Z,100663.03
2023-01-06T11:09:08.591Z,100670.41
2023-01-06T11:10:26.586Z,100665.19
2023-01-06T11:11:29.584Z,100669.09
2023-01-06T11:12:32.441Z,100674.72
2023-01-06T11:13:35.991Z,100675.81
2023-01-06T11:14:40.494Z,100660.59
2023-01-06T11:15:42.769Z,100661.97
2023-01-06T11:16:56.027Z,100648.28
2023-01-06T11:17:57.608Z,100643.31
2023-01-06T11:19:03.829Z,100633.06
2023-01-06T11:20:09.529Z,100629.06
2023-01-06T11:21:14.420Z,100625.28
2023-01-06T11:22:33.921Z,100626.81
2023-01-06T11:23:41.148Z,100629.38
2023-01-06T11:24:52.701Z,100625.16
2023-01-06T11:26:07.111Z,100621.19
2023-01-06T11:27:17.466Z,100617.47
2023-01-06T11:28:20.570Z,100610.31
2023-01-06T11:29:28.458Z,100597.50
2023-01-06T11:30:30.188Z,100590.28
2023-01-06T11:31:32.792Z,100592.50
2023-01-06T11:32:34.728Z,100586.31
2023-01-06T11:33:47.827Z,100589.59
2023-01-06T11:34:55.392Z,100592.81
2023-01-06T11:35:57.747Z,100588.72
2023-01-06T11:37:00.963Z,100590.63
2023-01-06T11:38:02.560Z,100598.47
2023-01-06T11:39:16.152Z,100596.66
2023-01-06T11:40:23.360Z,100597.25
2023-01-06T11:41:29.898Z,100595.03
2023-01-06T11:42:31.466Z,100595.34
2023-01-06T11:43:33.975Z,100609.34
2023-01-06T11:44:38.571Z,100594.25
2023-01-06T11:45:46.964Z,100621.78
2023-01-06T11:46:52.977Z,100606.84
2023-01-06T11:47:55.937Z,100615.31
2023-01-06T11:49:04.447Z,100615.59
2023-01-06T11:50:08.586Z,100607.34
2023-01-06T11:51:10.656Z,100612.94
2023-01-06T11:52:24.205Z,100613.28
2023-01-06T11:53:26.611Z,100609.31
2023-01-06T11:54:37.936Z,100617.19
2023-01-06T11:55:56.459Z,100606.91
2023-01-06T11:57:16.234Z,100616.53
2023-01-06T11:58:26.397Z,100615.66
2023-01-06T11:59:38.476Z,100619.19
2023-01-06T12:00:52.576Z,100614.94
2023-01-06T12:01:58.184Z,100609.06
2023-01-06T12:03:09.561Z,100634.16
2023-01-06T12:04:20.633Z,100606.81
2023-01-06T12:05:29.093Z,100608.19
2023-01-06T12:06:37.053Z,100624.03
2023-01-06T12:07:43.188Z,100605.06
2023-01-06T12:08:52.734Z,100611.72
2023-01-06T12:10:02.678Z,100602.44
2023-01-06T12:11:13.319Z,100600.78
2023-01-06T12:12:21.442Z,100607.41
2023-01-06T12:13:23.740Z,100604.19
2023-01-06T12:14:30.540Z,100595.47
2023-01-06T12:15:35.480Z,100589.34
2023-01-06T12:16:40.944Z,100600.38
2023-01-06T12:17:50.637Z,100602.38
2023-01-06T12:18:53.859Z,100599.66
2023-01-06T12:20:01.347Z,100580.25
2023-01-06T12:21:05.377Z,100608.38
2023-01-06T12:22:20.337Z,100602.81
2023-01-06T12:23:27.252Z,100606.84
2023-01-06T12:24:32.144Z,100610.31